メインページ
METAR-TAF:

METAR-TAF

空港 :

ベレン, パラー州, ブラジル

緯度: 01-23S, 経度: 048-29W, 海抜: 16m

現時点の気象観測

当レポートは29分前の17:00(UTC)に作成
の風 15kt
気温 24°C
湿度 89%
気圧
視程: 3000m
高度1200ftの雲は散在している
高度2500ftの千切れ雲あり
高度3000ftの雲はほとんどない, 積乱雲.
激しい雷雨, 雨

METAR: SBBE 231700Z 08015KT 3000 TSRA SCT012 BKN025 FEW030CB 24/22 Q10 11

時間: 14:29 (17:29 UTC)

予報

当レポートは7時間29分前の10:00(UTC)に作成
予報は23日の 12時(UTC)から 24日の 12時(UTC)まで有効
の風 5kt
視程10km以上
高度2000ftの雲はほとんどない
23日の 12時(UTC)から 23日の 13時(UTC)まで徐々に
北/北東の風 8kt
高度2000ftの千切れ雲あり
23日の 16時(UTC)から 23日の 18時(UTC)まで徐々に
の風 10kt
高度3500ftの雲は散在している
高度4000ftの雲はほとんどない, 塔状積雲.
23日の 19時(UTC)から 23日の 21時(UTC)まで一時的に
視程: 3000m
高度2500ftの千切れ雲あり
高度3000ftの雲はほとんどない, 積乱雲.
激しい雷雨, 雨
23日の 22時(UTC)から 23日の 24時(UTC)まで徐々に
東/北東の風 8kt
24日の 04時(UTC)から 24日の 06時(UTC)まで徐々に
東/北東の風 5kt

TAF: SBBE 231000Z 2312/2412 09005KT 9999 FEW020 TX31/2316Z TN24/2406Z BECMG 2312/2313 02008KT BKN020 BECMG 2316/2318 36010KT SCT035 FEW040TCU PR OB30 TEMPO 2319/2321 3000 TSRA BKN025 FEW030CB BECMG 2322/2324 06008KT CA VOK BECMG 2404/2406 07005KT RMK PEO

4,000以上の空港の気象観測と天気予報(METAR報とTAF報)

利用可能な観測所は地図上に黄色い丸と赤い丸で示す。

丸の上にカーソルを重ねると観測所名を参照できる。

次にクリックすると気象観測と天気予報を参照できる。

マップの切り替え:黒色「×」印の緑ボタンをクリックして拡大、「-」印の緑ボタンをクリックして縮小、緑色の三角印をクリックして隣りの地図に切り替え


METAR-TAF: